Capitán Aníbal Arab Airport

Airport
ICAO code: 
SLCO
IATA Code: 
CIJ
Summary
ICAO Region: 
CARSAM
Territory: 
Location: 
Cobija, Pando
Serving: 
Cobija
Elevation: 
889 ft
Coordinates: 
Aerial View: 
11° 2' 25.57" S, 68° 46' 58.699" W
Metar
Observation
SLCO 281200Z 00000KT 9999 FEW003 BKN070 25/24 Q1010
Station
Cobija
Date/Time
2022-01-28 12:00:00
Wind direction
Wind speed
00 kts
Lowest cloud amount
few clouds
Temperature
25°C
Dew point
24°C
Humidity
94%
QNH
1010 hPa
Weather condition
n/a

International airport serving the Acre River port city of Cobija, the capital of the Pando Department of Bolivia.

Climatology

Tropical Savanna climate (Köppen climate classification Aw).

Runways

Designator Length Width Surface Rops
2/20 2000 30 ASP No/No
Airport map: 
Aerial View: 

SKYbrary Partners:

Safety knowledge contributed by: